createdAt,value
2023-03-06T00:01:06.014Z,-3.63
2023-03-06T00:04:11.953Z,-3.64
2023-03-06T00:06:50.314Z,-3.66
2023-03-06T00:09:18.527Z,-3.68
2023-03-06T00:11:49.918Z,-3.69
2023-03-06T00:14:18.045Z,-3.70
2023-03-06T00:17:05.193Z,-3.72
2023-03-06T00:19:33.244Z,-3.72
2023-03-06T00:22:09.181Z,-3.74
2023-03-06T00:24:39.590Z,-3.76
2023-03-06T00:27:10.794Z,-3.78
2023-03-06T00:30:08.226Z,-3.79
2023-03-06T00:32:38.945Z,-3.81
2023-03-06T00:35:30.193Z,-3.82
2023-03-06T00:38:27.578Z,-3.83
2023-03-06T00:41:47.206Z,-3.84
2023-03-06T00:45:28.741Z,-3.86
2023-03-06T00:48:46.428Z,-3.89
2023-03-06T00:51:47.228Z,-3.91
2023-03-06T00:54:45.850Z,-3.93
2023-03-06T00:57:17.111Z,-3.96
2023-03-06T00:59:48.351Z,-3.98
2023-03-06T01:02:21.987Z,-4.00
2023-03-06T01:04:50.168Z,-4.00
2023-03-06T01:07:28.508Z,-4.02
2023-03-06T01:10:10.944Z,-4.05
2023-03-06T01:12:39.003Z,-4.07
2023-03-06T01:15:07.801Z,-4.08
2023-03-06T01:17:38.155Z,-4.09
2023-03-06T01:20:07.171Z,-4.11
2023-03-06T01:22:38.443Z,-4.12
2023-03-06T01:25:07.216Z,-4.13
2023-03-06T01:27:38.476Z,-4.15
2023-03-06T01:30:07.602Z,-4.16
2023-03-06T01:32:38.709Z,-4.18
2023-03-06T01:35:16.851Z,-4.19
2023-03-06T01:37:52.433Z,-4.20
2023-03-06T01:40:35.363Z,-4.21
2023-03-06T01:43:24.302Z,-4.21
2023-03-06T01:45:53.030Z,-4.23
2023-03-06T01:48:23.990Z,-4.23
2023-03-06T01:51:12.619Z,-4.24
2023-03-06T01:53:43.240Z,-4.25
2023-03-06T01:56:22.132Z,-4.27
2023-03-06T01:59:30.723Z,-4.28
2023-03-06T02:02:01.697Z,-4.29
2023-03-06T02:04:44.095Z,-4.28
2023-03-06T02:07:32.746Z,-4.29
2023-03-06T02:10:03.464Z,-4.30
2023-03-06T02:12:45.144Z,-4.31
2023-03-06T02:15:17.886Z,-4.32
2023-03-06T02:17:47.627Z,-4.33
2023-03-06T02:20:53.796Z,-4.35
2023-03-06T02:23:33.959Z,-4.36
2023-03-06T02:26:05.414Z,-4.37
2023-03-06T02:28:40.854Z,-4.39
2023-03-06T02:31:19.904Z,-4.40
2023-03-06T02:34:02.783Z,-4.41
2023-03-06T02:36:33.732Z,-4.42
2023-03-06T02:39:02.034Z,-4.43
2023-03-06T02:41:32.446Z,-4.45
2023-03-06T02:44:00.697Z,-4.46
2023-03-06T02:46:32.382Z,-4.46
2023-03-06T02:49:00.495Z,-4.47
2023-03-06T02:51:30.962Z,-4.47
2023-03-06T02:53:59.032Z,-4.48
2023-03-06T02:56:27.205Z,-4.48
2023-03-06T02:58:55.006Z,-4.49
2023-03-06T03:01:36.442Z,-4.49
2023-03-06T03:04:10.201Z,-4.50
2023-03-06T03:06:41.054Z,-4.52
2023-03-06T03:09:09.554Z,-4.53
2023-03-06T03:11:37.737Z,-4.54
2023-03-06T03:14:11.275Z,-4.54
2023-03-06T03:16:49.617Z,-4.55
2023-03-06T03:19:17.836Z,-4.56
2023-03-06T03:21:46.324Z,-4.56
2023-03-06T03:24:35.184Z,-4.57
2023-03-06T03:27:03.994Z,-4.58
2023-03-06T03:29:37.256Z,-4.59
2023-03-06T03:32:06.778Z,-4.59
2023-03-06T03:34:52.142Z,-4.59
2023-03-06T03:37:23.661Z,-4.61
2023-03-06T03:39:54.863Z,-4.61
2023-03-06T03:42:23.879Z,-4.62
2023-03-06T03:45:00.712Z,-4.63
2023-03-06T03:47:52.446Z,-4.63
2023-03-06T03:50:21.357Z,-4.65
2023-03-06T03:52:52.650Z,-4.67
2023-03-06T03:55:20.874Z,-4.67
2023-03-06T03:57:51.873Z,-4.67
2023-03-06T04:00:23.312Z,-4.67
2023-03-06T04:02:58.970Z,-4.68
2023-03-06T04:05:58.049Z,-4.67
2023-03-06T04:08:28.985Z,-4.67
2023-03-06T04:10:57.271Z,-4.68
2023-03-06T04:13:35.632Z,-4.68
2023-03-06T04:16:04.767Z,-4.69
2023-03-06T04:18:33.622Z,-4.71
2023-03-06T04:21:06.330Z,-4.71
2023-03-06T04:23:37.776Z,-4.71
2023-03-06T04:26:06.884Z,-4.72
2023-03-06T04:28:35.974Z,-4.73
2023-03-06T04:31:34.268Z,-4.75
2023-03-06T04:34:11.656Z,-4.75
2023-03-06T04:36:45.224Z,-4.76
2023-03-06T04:39:16.892Z,-4.76
2023-03-06T04:41:47.975Z,-4.76
2023-03-06T04:44:24.890Z,-4.77
2023-03-06T04:46:52.833Z,-4.77
2023-03-06T04:49:41.091Z,-4.78
2023-03-06T04:52:11.560Z,-4.78
2023-03-06T04:55:08.438Z,-4.80
2023-03-06T04:57:37.367Z,-4.81
2023-03-06T05:00:19.178Z,-4.83
2023-03-06T05:02:48.205Z,-4.84
2023-03-06T05:05:17.206Z,-4.86
2023-03-06T05:07:47.743Z,-4.87
2023-03-06T05:10:22.877Z,-4.88
2023-03-06T05:13:20.190Z,-4.89
2023-03-06T05:16:11.262Z,-4.90
2023-03-06T05:18:39.263Z,-4.91
2023-03-06T05:21:23.555Z,-4.91
2023-03-06T05:23:56.916Z,-4.91
2023-03-06T05:26:27.664Z,-4.91
2023-03-06T05:28:55.986Z,-4.92
2023-03-06T05:31:24.050Z,-4.92
2023-03-06T05:33:57.023Z,-4.92
2023-03-06T05:36:28.592Z,-4.91
2023-03-06T05:38:59.104Z,-4.91
2023-03-06T05:41:27.183Z,-4.90
2023-03-06T05:44:25.552Z,-4.90
2023-03-06T05:46:53.466Z,-4.90
2023-03-06T05:49:21.578Z,-4.89
2023-03-06T05:52:20.779Z,-4.89
2023-03-06T05:54:59.718Z,-4.87
2023-03-06T05:57:28.019Z,-4.85
2023-03-06T05:59:58.175Z,-4.84
2023-03-06T06:02:26.621Z,-4.81
2023-03-06T06:05:07.060Z,-4.80
2023-03-06T06:08:08.044Z,-4.78
2023-03-06T06:11:18.252Z,-4.76
2023-03-06T06:14:18.721Z,-4.73
2023-03-06T06:17:10.394Z,-4.71
2023-03-06T06:19:38.732Z,-4.68
2023-03-06T06:22:29.543Z,-4.65
2023-03-06T06:25:00.093Z,-4.62
2023-03-06T06:28:30.761Z,-4.59
2023-03-06T06:31:24.543Z,-4.55
2023-03-06T06:34:35.627Z,-4.50
2023-03-06T06:37:24.424Z,-4.47
2023-03-06T06:39:55.149Z,-4.42
2023-03-06T06:42:53.498Z,-4.38
2023-03-06T06:45:31.620Z,-4.34
2023-03-06T06:49:00.262Z,-4.30
2023-03-06T06:51:48.745Z,-4.25
2023-03-06T06:54:31.237Z,-4.20
2023-03-06T06:57:18.240Z,-4.15
2023-03-06T07:00:11.339Z,-4.09
2023-03-06T07:02:54.557Z,-4.04
2023-03-06T07:05:22.812Z,-4.00
2023-03-06T07:08:13.630Z,-3.95
2023-03-06T07:10:41.628Z,-3.90
2023-03-06T07:13:09.805Z,-3.85
2023-03-06T07:16:29.565Z,-3.80
2023-03-06T07:19:38.715Z,-3.73
2023-03-06T07:22:21.907Z,-3.66
2023-03-06T07:24:52.150Z,-3.60
2023-03-06T07:27:48.755Z,-3.56
2023-03-06T07:30:25.795Z,-3.48
2023-03-06T07:32:58.360Z,-3.42
2023-03-06T07:35:26.637Z,-3.35
2023-03-06T07:37:57.995Z,-3.29
2023-03-06T07:40:46.361Z,-3.23
2023-03-06T07:43:19.340Z,-3.16
2023-03-06T07:46:01.754Z,-3.09
2023-03-06T07:48:30.514Z,-3.03
2023-03-06T07:51:05.256Z,-2.96
2023-03-06T07:54:13.859Z,-2.89
2023-03-06T07:56:45.051Z,-2.82
2023-03-06T07:59:18.320Z,-2.74
2023-03-06T08:01:49.037Z,-2.67
2023-03-06T08:04:19.712Z,-2.61
2023-03-06T08:06:48.051Z,-2.54
2023-03-06T08:09:16.213Z,-2.47
2023-03-06T08:11:45.278Z,-2.41
2023-03-06T08:14:16.432Z,-2.34
2023-03-06T08:16:44.397Z,-2.25
2023-03-06T08:19:15.796Z,-2.17
2023-03-06T08:21:43.907Z,-2.09
2023-03-06T08:24:13.222Z,-2.02
2023-03-06T08:26:41.601Z,-1.96
2023-03-06T08:29:10.090Z,-1.87
2023-03-06T08:31:42.863Z,-1.79
2023-03-06T08:34:25.773Z,-1.70
2023-03-06T08:36:53.574Z,-1.63
2023-03-06T08:39:24.175Z,-1.57
2023-03-06T08:41:52.190Z,-1.49
2023-03-06T08:44:20.350Z,-1.41
2023-03-06T08:46:50.846Z,-1.34
2023-03-06T08:49:18.730Z,-1.26
2023-03-06T08:51:46.778Z,-1.17
2023-03-06T08:54:15.057Z,-1.09
2023-03-06T08:56:43.156Z,-1.01
2023-03-06T08:59:13.963Z,-0.92
2023-03-06T09:01:45.109Z,-0.84
2023-03-06T09:04:13.308Z,-0.76
2023-03-06T09:06:43.162Z,-0.69
2023-03-06T09:09:11.578Z,-0.63
2023-03-06T09:11:39.876Z,-0.54
2023-03-06T09:14:10.320Z,-0.47
2023-03-06T09:16:38.583Z,-0.39
2023-03-06T09:19:06.549Z,-0.30
2023-03-06T09:21:34.686Z,-0.22
2023-03-06T09:24:03.046Z,-0.13
2023-03-06T09:26:45.160Z,-0.05
2023-03-06T09:29:16.253Z,0.02
2023-03-06T09:31:45.326Z,0.08
2023-03-06T09:34:13.467Z,0.14
2023-03-06T09:36:57.264Z,0.21
2023-03-06T09:39:31.438Z,0.28
2023-03-06T09:41:59.778Z,0.33
2023-03-06T09:44:30.246Z,0.38
2023-03-06T09:47:17.986Z,0.44
2023-03-06T09:50:15.381Z,0.51
2023-03-06T09:52:53.066Z,0.58
2023-03-06T09:55:27.121Z,0.62
2023-03-06T09:58:21.384Z,0.67
2023-03-06T10:01:16.228Z,0.71
2023-03-06T10:04:19.724Z,0.73
2023-03-06T10:06:50.934Z,0.78
2023-03-06T10:09:22.372Z,0.81
2023-03-06T10:11:58.802Z,0.84
2023-03-06T10:14:49.380Z,0.87
2023-03-06T10:17:41.466Z,0.91
2023-03-06T10:20:27.903Z,0.95
2023-03-06T10:23:50.807Z,0.97
2023-03-06T10:26:45.364Z,1.02
2023-03-06T10:30:03.612Z,1.05
2023-03-06T10:32:49.360Z,1.11
2023-03-06T10:35:21.317Z,1.16
2023-03-06T10:38:00.436Z,1.21
2023-03-06T10:40:49.976Z,1.27
2023-03-06T10:44:25.455Z,1.32
2023-03-06T10:46:54.385Z,1.37
2023-03-06T10:49:27.113Z,1.39
2023-03-06T10:52:21.295Z,1.42
2023-03-06T10:54:51.750Z,1.45
2023-03-06T10:57:25.463Z,1.46
2023-03-06T10:59:58.830Z,1.48
2023-03-06T11:02:33.913Z,1.52
2023-03-06T11:05:05.720Z,1.54
2023-03-06T11:07:36.135Z,1.56
2023-03-06T11:10:19.872Z,1.58
2023-03-06T11:13:07.533Z,1.59
2023-03-06T11:16:19.567Z,1.59
2023-03-06T11:19:36.914Z,1.60
2023-03-06T11:22:17.797Z,1.62
2023-03-06T11:25:14.414Z,1.63
2023-03-06T11:28:26.951Z,1.66
2023-03-06T11:31:35.580Z,1.69
2023-03-06T11:34:50.175Z,1.69
2023-03-06T11:38:24.012Z,1.68
2023-03-06T11:41:18.955Z,1.69
2023-03-06T11:44:23.266Z,1.69
2023-03-06T11:47:21.797Z,1.69
2023-03-06T11:50:06.119Z,1.70
2023-03-06T11:52:56.117Z,1.72
2023-03-06T11:56:35.737Z,1.75
2023-03-06T12:00:15.285Z,1.75
2023-03-06T12:03:02.633Z,1.74
2023-03-06T12:06:43.498Z,1.76
2023-03-06T12:13:06.065Z,1.76
2023-03-06T12:16:20.887Z,1.74
2023-03-06T12:19:42.587Z,1.74
2023-03-06T12:22:53.386Z,1.73
2023-03-06T12:25:52.822Z,1.72
2023-03-06T12:28:52.169Z,1.70
2023-03-06T12:32:03.425Z,1.66
2023-03-06T12:35:13.337Z,1.62
2023-03-06T12:38:19.638Z,1.59
2023-03-06T12:40:53.141Z,1.55
2023-03-06T12:43:47.199Z,1.52
2023-03-06T12:46:30.567Z,1.49
2023-03-06T12:49:32.097Z,1.47
2023-03-06T12:52:04.868Z,1.45
2023-03-06T12:54:37.095Z,1.43
2023-03-06T12:57:12.577Z,1.41
2023-03-06T12:59:49.110Z,1.41
2023-03-06T13:02:51.655Z,1.39
2023-03-06T13:06:21.973Z,1.37
2023-03-06T13:09:23.061Z,1.34
2023-03-06T13:12:25.596Z,1.32
2023-03-06T13:14:57.211Z,1.31
2023-03-06T13:17:41.355Z,1.30
2023-03-06T13:20:15.024Z,1.29
2023-03-06T13:23:28.578Z,1.26
2023-03-06T13:26:01.098Z,1.24
2023-03-06T13:29:01.854Z,1.21
2023-03-06T13:31:58.983Z,1.21
2023-03-06T13:34:40.158Z,1.19
2023-03-06T13:37:48.294Z,1.18
2023-03-06T13:40:34.464Z,1.17
2023-03-06T13:43:40.646Z,1.16
2023-03-06T13:46:36.691Z,1.15
2023-03-06T13:49:34.676Z,1.13
2023-03-06T13:52:45.221Z,1.12
2023-03-06T13:55:27.320Z,1.10
2023-03-06T13:58:46.676Z,1.09
2023-03-06T14:01:29.120Z,1.07
2023-03-06T14:04:49.568Z,1.06
2023-03-06T14:07:52.446Z,1.05
2023-03-06T14:10:41.714Z,1.03
2023-03-06T14:13:38.439Z,1.02
2023-03-06T14:16:24.520Z,1.02
2023-03-06T14:18:55.519Z,1.01
2023-03-06T14:22:26.157Z,1.04
2023-03-06T14:25:21.264Z,1.03
2023-03-06T14:27:53.508Z,1.00
2023-03-06T14:30:26.754Z,0.99
2023-03-06T14:33:18.412Z,0.97
2023-03-06T14:35:51.665Z,0.94
2023-03-06T14:38:35.383Z,0.92
2023-03-06T14:41:14.269Z,0.91
2023-03-06T14:43:42.499Z,0.89
2023-03-06T14:46:22.739Z,0.85
2023-03-06T14:48:54.153Z,0.85
2023-03-06T14:51:30.129Z,0.83
2023-03-06T14:54:20.011Z,0.81
2023-03-06T14:57:05.481Z,0.81
2023-03-06T14:59:44.511Z,0.81
2023-03-06T15:02:19.984Z,0.81
2023-03-06T15:04:58.244Z,0.81
2023-03-06T15:07:35.177Z,0.81
2023-03-06T15:10:41.788Z,0.82
2023-03-06T15:13:26.280Z,0.83
2023-03-06T15:16:15.278Z,0.83
2023-03-06T15:19:06.670Z,0.85
2023-03-06T15:21:48.418Z,0.85
2023-03-06T15:25:04.141Z,0.86
2023-03-06T15:27:34.580Z,0.88
2023-03-06T15:30:13.928Z,0.89
2023-03-06T15:33:36.640Z,0.91
2023-03-06T15:36:15.638Z,0.93
2023-03-06T15:38:49.642Z,0.94
2023-03-06T15:41:50.970Z,0.95
2023-03-06T15:45:04.518Z,0.97
2023-03-06T15:48:06.124Z,0.97
2023-03-06T15:51:55.137Z,0.99
2023-03-06T15:54:33.557Z,0.99
2023-03-06T15:57:26.125Z,0.99
2023-03-06T16:00:50.955Z,1.00
2023-03-06T16:03:18.759Z,0.99
2023-03-06T16:06:18.273Z,0.99
2023-03-06T16:09:41.839Z,0.99
2023-03-06T16:13:36.463Z,0.96
2023-03-06T16:17:05.463Z,0.96
2023-03-06T16:20:11.629Z,0.95
2023-03-06T16:23:12.800Z,0.94
2023-03-06T16:25:48.645Z,0.94
2023-03-06T16:29:08.185Z,0.93
2023-03-06T16:31:43.941Z,0.92
2023-03-06T16:34:32.396Z,0.92
2023-03-06T16:37:03.166Z,0.91
2023-03-06T16:41:12.201Z,0.90
2023-03-06T16:43:19.864Z,0.90
2023-03-06T16:46:02.402Z,0.90
2023-03-06T16:48:34.006Z,0.89
2023-03-06T16:51:42.682Z,0.89
2023-03-06T16:54:50.416Z,0.89
2023-03-06T16:57:59.471Z,0.88
2023-03-06T17:00:33.875Z,0.88
2023-03-06T17:03:12.444Z,0.87
2023-03-06T17:06:20.828Z,0.88
2023-03-06T17:08:52.111Z,0.87
2023-03-06T17:11:42.927Z,0.87
2023-03-06T17:14:23.419Z,0.87
2023-03-06T17:16:54.865Z,0.86
2023-03-06T17:19:22.873Z,0.86
2023-03-06T17:21:56.850Z,0.86
2023-03-06T17:24:38.028Z,0.85
2023-03-06T17:27:09.509Z,0.85
2023-03-06T17:29:37.751Z,0.84
2023-03-06T17:32:08.398Z,0.83
2023-03-06T17:34:36.363Z,0.83
2023-03-06T17:37:07.214Z,0.83
2023-03-06T17:39:37.808Z,0.83
2023-03-06T17:42:26.255Z,0.82
2023-03-06T17:44:59.856Z,0.81
2023-03-06T17:47:27.887Z,0.79
2023-03-06T17:49:55.952Z,0.79
2023-03-06T17:52:24.075Z,0.78
2023-03-06T17:54:52.247Z,0.78
2023-03-06T17:57:20.374Z,0.77
2023-03-06T17:59:48.859Z,0.76
2023-03-06T18:02:17.778Z,0.75
2023-03-06T18:04:49.105Z,0.75
2023-03-06T18:07:29.567Z,0.75
2023-03-06T18:10:22.277Z,0.74
2023-03-06T18:13:03.587Z,0.74
2023-03-06T18:15:31.865Z,0.74
2023-03-06T18:18:03.197Z,0.73
2023-03-06T18:20:46.997Z,0.72
2023-03-06T18:23:26.681Z,0.71
2023-03-06T18:26:34.423Z,0.71
2023-03-06T18:29:17.272Z,0.69
2023-03-06T18:31:49.415Z,0.69
2023-03-06T18:34:19.794Z,0.68
2023-03-06T18:36:55.289Z,0.67
2023-03-06T18:39:54.906Z,0.66
2023-03-06T18:42:38.238Z,0.66
2023-03-06T18:45:19.164Z,0.65
2023-03-06T18:47:48.987Z,0.64
2023-03-06T18:50:17.764Z,0.63
2023-03-06T18:52:46.692Z,0.63
2023-03-06T18:55:15.216Z,0.63
2023-03-06T18:57:45.908Z,0.62
2023-03-06T19:00:14.598Z,0.62
2023-03-06T19:02:45.168Z,0.62
2023-03-06T19:05:22.422Z,0.62
2023-03-06T19:07:57.636Z,0.62
2023-03-06T19:10:36.590Z,0.61
2023-03-06T19:13:15.205Z,0.60
2023-03-06T19:15:56.584Z,0.59
2023-03-06T19:18:34.312Z,0.59
2023-03-06T19:21:34.208Z,0.59
2023-03-06T19:24:02.753Z,0.58
2023-03-06T19:26:44.083Z,0.58
2023-03-06T19:29:16.968Z,0.56
2023-03-06T19:31:45.390Z,0.57
2023-03-06T19:34:15.946Z,0.56
2023-03-06T19:36:54.105Z,0.55
2023-03-06T19:39:24.834Z,0.55
2023-03-06T19:41:52.876Z,0.55
2023-03-06T19:44:21.054Z,0.55
2023-03-06T19:46:49.141Z,0.55
2023-03-06T19:49:18.100Z,0.54
2023-03-06T19:51:46.038Z,0.54
2023-03-06T19:54:14.596Z,0.54
2023-03-06T19:56:45.209Z,0.54
2023-03-06T19:59:13.274Z,0.54
2023-03-06T20:01:41.668Z,0.54
2023-03-06T20:04:09.972Z,0.52
2023-03-06T20:06:40.766Z,0.52
2023-03-06T20:09:20.336Z,0.51
2023-03-06T20:11:51.507Z,0.52
2023-03-06T20:14:37.323Z,0.52
2023-03-06T20:17:45.012Z,0.52
2023-03-06T20:20:15.240Z,0.51
2023-03-06T20:22:43.523Z,0.51
2023-03-06T20:25:26.458Z,0.50
2023-03-06T20:28:32.573Z,0.50
2023-03-06T20:31:17.525Z,0.49
2023-03-06T20:34:08.692Z,0.49
2023-03-06T20:36:59.158Z,0.47
2023-03-06T20:39:30.330Z,0.47
2023-03-06T20:42:09.255Z,0.47
2023-03-06T20:44:39.418Z,0.45
2023-03-06T20:47:07.964Z,0.44
2023-03-06T20:49:41.605Z,0.43
2023-03-06T20:52:24.367Z,0.43
2023-03-06T20:54:54.833Z,0.42
2023-03-06T20:57:25.515Z,0.41
2023-03-06T20:59:53.468Z,0.39
2023-03-06T21:02:21.454Z,0.38
2023-03-06T21:04:49.912Z,0.38
2023-03-06T21:07:17.903Z,0.38
2023-03-06T21:09:55.988Z,0.38
2023-03-06T21:12:30.125Z,0.37
2023-03-06T21:14:59.017Z,0.36
2023-03-06T21:17:39.069Z,0.36
2023-03-06T21:20:07.646Z,0.35
2023-03-06T21:22:56.287Z,0.35
2023-03-06T21:25:37.276Z,0.35
2023-03-06T21:28:46.907Z,0.35
2023-03-06T21:31:27.098Z,0.34
2023-03-06T21:35:04.582Z,0.34
2023-03-06T21:37:51.734Z,0.33
2023-03-06T21:40:25.920Z,0.34
2023-03-06T21:42:59.909Z,0.33
2023-03-06T21:45:30.255Z,0.32
2023-03-06T21:48:00.154Z,0.32
2023-03-06T21:50:28.563Z,0.32
2023-03-06T21:52:57.435Z,0.32
2023-03-06T21:55:25.412Z,0.32
2023-03-06T21:57:54.700Z,0.32
2023-03-06T22:00:26.095Z,0.33
2023-03-06T22:02:54.227Z,0.32
2023-03-06T22:05:24.214Z,0.32
2023-03-06T22:08:02.129Z,0.32
2023-03-06T22:10:30.111Z,0.31
2023-03-06T22:12:57.974Z,0.31
2023-03-06T22:15:28.506Z,0.31
2023-03-06T22:17:56.669Z,0.30
2023-03-06T22:20:24.698Z,0.30
2023-03-06T22:22:52.925Z,0.29
2023-03-06T22:25:21.102Z,0.29
2023-03-06T22:27:49.063Z,0.29
2023-03-06T22:30:20.208Z,0.29
2023-03-06T22:32:48.411Z,0.29
2023-03-06T22:35:16.863Z,0.28
2023-03-06T22:37:45.113Z,0.28
2023-03-06T22:40:13.193Z,0.28
2023-03-06T22:43:02.525Z,0.28
2023-03-06T22:45:34.828Z,0.27
2023-03-06T22:48:10.839Z,0.25
2023-03-06T22:50:42.458Z,0.23
2023-03-06T22:53:10.602Z,0.19
2023-03-06T22:55:48.736Z,0.18
2023-03-06T22:58:16.812Z,0.15
2023-03-06T23:00:55.671Z,0.14
2023-03-06T23:03:24.072Z,0.12
2023-03-06T23:05:51.971Z,0.11
2023-03-06T23:08:20.267Z,0.10
2023-03-06T23:10:48.122Z,0.08
2023-03-06T23:13:34.308Z,0.05
2023-03-06T23:16:21.016Z,0.02
2023-03-06T23:19:07.823Z,0.00
2023-03-06T23:21:55.131Z,-0.02
2023-03-06T23:24:41.453Z,-0.04
2023-03-06T23:27:12.190Z,-0.06
2023-03-06T23:29:50.003Z,-0.08
2023-03-06T23:32:18.424Z,-0.10
2023-03-06T23:34:48.807Z,-0.12
2023-03-06T23:37:17.083Z,-0.15
2023-03-06T23:39:45.130Z,-0.17
2023-03-06T23:42:16.077Z,-0.18
2023-03-06T23:44:44.048Z,-0.21
2023-03-06T23:47:17.125Z,-0.24
2023-03-06T23:49:45.182Z,-0.27
2023-03-06T23:52:13.272Z,-0.30
2023-03-06T23:54:54.054Z,-0.34
2023-03-06T23:57:22.013Z,-0.36
2023-03-06T23:59:50.192Z,-0.39
